Disclaimer

Please do not use the information listed here in-flight or in-navigation, as they are not provided to us by the airports but are provided by volunteers, so they might be outdated.

Search


Regions


Airport information page

Radio informations:
Ground (GND) - 121.9 MHz
DEP - 118.9 MHz
Automatic Terminal Information Service (ATIS) - 119.8 MHz
Approach (APP) - 132.0 MHz

Airport informations:
Latitude: 37° 43' 41.00" S
Longitude: 144° 54' 07.00" E
Elevation: 282 feet - 86 meters
Operating hours: N/A
Operating agency: Civil government, landing fees and diplomatic clearance may be required
Timezone: UTC+10(+11DT)
Fuel: Jet A1, without icing nhibitor.

100/130 MIL Spec, low lead, aviation gasoline (BLUE)

Runway information:
08/26 - 6302 x 148 feet< - >1921 x 45 meters
17/35 - 4311 x 148 feet< - >1314 x 45 meters

Recent METARs:
YMEN 141600Z AUTO 19009KT 9999 // BKN028 BKN031 OVC048 14/10 Q1019
YMEN 141700Z AUTO 20011KT 9999 // SCT038 OVC060 13/09 Q1020
YMEN 141700Z AUTO 20011KT 9999 // SCT038 OVC060 13/09 Q1020

Airport on the map: